sensor_id;sensor_type;location;lat;lon;timestamp;pressure;altitude;pressure_sealevel;temperature;humidity
6024;BME280;3040;42.654;23.296;2023-04-30T00:00:28;93938.09;;;12.77;70.32
6024;BME280;3040;42.654;23.296;2023-04-30T00:02:56;93938.97;;;12.61;70.52
6024;BME280;3040;42.654;23.296;2023-04-30T00:05:23;93950.28;;;12.55;70.84
6024;BME280;3040;42.654;23.296;2023-04-30T00:07:50;93919.25;;;12.43;70.49
6024;BME280;3040;42.654;23.296;2023-04-30T00:10:17;93947.16;;;12.49;70.58
6024;BME280;3040;42.654;23.296;2023-04-30T00:12:43;93938.25;;;12.00;72.62
6024;BME280;3040;42.654;23.296;2023-04-30T00:15:10;93946.16;;;11.93;73.64
6024;BME280;3040;42.654;23.296;2023-04-30T00:17:37;93950.25;;;12.09;72.30
6024;BME280;3040;42.654;23.296;2023-04-30T00:20:06;93942.09;;;11.79;74.02
6024;BME280;3040;42.654;23.296;2023-04-30T00:22:33;93738.63;;;10.84;72.47
6024;BME280;3040;42.654;23.296;2023-04-30T00:25:00;93944.13;;;12.28;71.65
6024;BME280;3040;42.654;23.296;2023-04-30T00:27:27;93941.84;;;12.07;71.62
6024;BME280;3040;42.654;23.296;2023-04-30T00:29:55;93942.91;;;11.83;71.78
6024;BME280;3040;42.654;23.296;2023-04-30T00:32:22;93942.06;;;11.99;71.59
6024;BME280;3040;42.654;23.296;2023-04-30T00:34:49;93904.56;;;11.50;72.66
6024;BME280;3040;42.654;23.296;2023-04-30T00:37:17;93939.34;;;11.76;73.21
6024;BME280;3040;42.654;23.296;2023-04-30T00:39:44;93936.03;;;11.82;72.07
6024;BME280;3040;42.654;23.296;2023-04-30T00:42:10;93940.53;;;11.98;71.88
6024;BME280;3040;42.654;23.296;2023-04-30T00:44:37;93940.09;;;11.96;72.07
6024;BME280;3040;42.654;23.296;2023-04-30T00:47:04;93935.19;;;11.98;71.76
6024;BME280;3040;42.654;23.296;2023-04-30T00:49:31;93932.38;;;12.10;71.81
6024;BME280;3040;42.654;23.296;2023-04-30T00:51:58;93937.00;;;11.94;72.64
6024;BME280;3040;42.654;23.296;2023-04-30T00:54:27;93942.06;;;11.99;71.32
6024;BME280;3040;42.654;23.296;2023-04-30T00:56:54;93936.03;;;11.44;74.41
6024;BME280;3040;42.654;23.296;2023-04-30T00:59:20;93861.22;;;10.95;73.83
6024;BME280;3040;42.654;23.296;2023-04-30T01:01:48;93938.56;;;11.56;72.73
6024;BME280;3040;42.654;23.296;2023-04-30T01:04:15;93929.72;;;11.71;72.62
6024;BME280;3040;42.654;23.296;2023-04-30T01:06:42;93926.63;;;11.69;72.20
6024;BME280;3040;42.654;23.296;2023-04-30T01:09:11;93928.28;;;11.74;72.36
6024;BME280;3040;42.654;23.296;2023-04-30T01:11:47;93922.41;;;11.30;73.84
6024;BME280;3040;42.654;23.296;2023-04-30T01:14:22;93869.84;;;11.08;72.85
6024;BME280;3040;42.654;23.296;2023-04-30T01:16:57;93926.78;;;11.22;73.12
6024;BME280;3040;42.654;23.296;2023-04-30T01:19:35;93929.72;;;11.33;72.84
6024;BME280;3040;42.654;23.296;2023-04-30T01:22:04;93927.31;;;11.47;72.31
6024;BME280;3040;42.654;23.296;2023-04-30T01:24:46;93927.03;;;11.52;71.86
6024;BME280;3040;42.654;23.296;2023-04-30T01:27:23;93926.66;;;11.34;72.14
6024;BME280;3040;42.654;23.296;2023-04-30T01:29:58;93853.00;;;10.84;73.10
6024;BME280;3040;42.654;23.296;2023-04-30T01:32:27;93921.59;;;11.45;72.20
6024;BME280;3040;42.654;23.296;2023-04-30T01:34:54;93921.72;;;11.52;71.79
6024;BME280;3040;42.654;23.296;2023-04-30T01:37:25;93928.03;;;11.63;71.59
6024;BME280;3040;42.654;23.296;2023-04-30T01:40:04;93914.59;;;11.56;70.66
6024;BME280;3040;42.654;23.296;2023-04-30T01:42:40;93915.69;;;11.55;70.54
6024;BME280;3040;42.654;23.296;2023-04-30T01:45:19;93931.72;;;11.74;70.66
6024;BME280;3040;42.654;23.296;2023-04-30T01:47:54;93937.44;;;11.76;70.79
6024;BME280;3040;42.654;23.296;2023-04-30T01:50:28;93936.75;;;11.79;71.18
6024;BME280;3040;42.654;23.296;2023-04-30T01:52:58;93929.66;;;11.68;70.59
6024;BME280;3040;42.654;23.296;2023-04-30T01:55:29;93926.78;;;11.76;70.88
6024;BME280;3040;42.654;23.296;2023-04-30T01:58:01;93928.75;;;11.79;70.47
6024;BME280;3040;42.654;23.296;2023-04-30T02:00:30;93930.41;;;11.88;70.54
6024;BME280;3040;42.654;23.296;2023-04-30T02:02:57;93932.41;;;11.91;70.76
6024;BME280;3040;42.654;23.296;2023-04-30T02:05:24;93906.19;;;11.73;70.32
6024;BME280;3040;42.654;23.296;2023-04-30T02:07:51;93929.31;;;11.89;70.79
6024;BME280;3040;42.654;23.296;2023-04-30T02:10:23;93935.75;;;11.88;70.48
6024;BME280;3040;42.654;23.296;2023-04-30T02:12:50;93932.88;;;11.77;71.42
6024;BME280;3040;42.654;23.296;2023-04-30T02:15:17;93885.28;;;11.37;72.10
6024;BME280;3040;42.654;23.296;2023-04-30T02:17:46;93917.41;;;11.63;72.15
6024;BME280;3040;42.654;23.296;2023-04-30T02:20:12;93932.13;;;11.76;71.87
6024;BME280;3040;42.654;23.296;2023-04-30T02:22:39;93884.38;;;11.49;71.32
6024;BME280;3040;42.654;23.296;2023-04-30T02:25:07;93929.44;;;11.76;72.14
6024;BME280;3040;42.654;23.296;2023-04-30T02:27:35;93908.00;;;11.50;71.96
6024;BME280;3040;42.654;23.296;2023-04-30T02:30:03;93892.41;;;11.52;71.16
6024;BME280;3040;42.654;23.296;2023-04-30T02:32:30;93920.16;;;11.70;72.43
6024;BME280;3040;42.654;23.296;2023-04-30T02:34:58;93923.00;;;11.77;71.96
6024;BME280;3040;42.654;23.296;2023-04-30T02:37:25;93928.72;;;11.60;72.22
6024;BME280;3040;42.654;23.296;2023-04-30T02:39:52;93922.56;;;11.56;73.22
6024;BME280;3040;42.654;23.296;2023-04-30T02:42:19;93929.44;;;11.57;72.97
6024;BME280;3040;42.654;23.296;2023-04-30T02:44:46;93929.00;;;11.55;73.94
6024;BME280;3040;42.654;23.296;2023-04-30T02:47:13;93933.38;;;11.63;73.79
6024;BME280;3040;42.654;23.296;2023-04-30T02:49:39;93854.09;;;11.18;73.56
6024;BME280;3040;42.654;23.296;2023-04-30T02:52:08;93926.09;;;11.79;72.81
6024;BME280;3040;42.654;23.296;2023-04-30T02:54:34;93929.88;;;11.78;73.21
6024;BME280;3040;42.654;23.296;2023-04-30T02:57:02;93923.84;;;11.81;72.19
6024;BME280;3040;42.654;23.296;2023-04-30T02:59:28;93938.69;;;12.02;72.26
6024;BME280;3040;42.654;23.296;2023-04-30T03:01:55;93935.34;;;12.05;72.12
6024;BME280;3040;42.654;23.296;2023-04-30T03:04:22;93947.59;;;12.09;72.48
6024;BME280;3040;42.654;23.296;2023-04-30T03:06:49;93934.31;;;12.13;72.61
6024;BME280;3040;42.654;23.296;2023-04-30T03:09:17;93933.78;;;12.04;72.31
6024;BME280;3040;42.654;23.296;2023-04-30T03:11:44;93938.53;;;12.14;71.45
6024;BME280;3040;42.654;23.296;2023-04-30T03:14:11;93907.44;;;11.99;71.97
6024;BME280;3040;42.654;23.296;2023-04-30T03:16:37;93937.56;;;12.22;72.38
6024;BME280;3040;42.654;23.296;2023-04-30T03:19:04;93950.72;;;12.34;71.70
6024;BME280;3040;42.654;23.296;2023-04-30T03:21:31;93905.28;;;12.08;72.79
6024;BME280;3040;42.654;23.296;2023-04-30T03:23:58;93929.13;;;12.20;73.09
6024;BME280;3040;42.654;23.296;2023-04-30T03:26:26;93957.59;;;12.35;73.47
6024;BME280;3040;42.654;23.296;2023-04-30T03:28:53;93951.50;;;12.35;72.69
6024;BME280;3040;42.654;23.296;2023-04-30T03:31:20;93920.22;;;12.12;72.42
6024;BME280;3040;42.654;23.296;2023-04-30T03:33:47;93954.50;;;12.33;72.28
6024;BME280;3040;42.654;23.296;2023-04-30T03:36:14;93951.41;;;12.31;72.89
6024;BME280;3040;42.654;23.296;2023-04-30T03:38:41;93902.50;;;12.01;72.87
6024;BME280;3040;42.654;23.296;2023-04-30T03:41:08;93929.53;;;11.99;71.87
6024;BME280;3040;42.654;23.296;2023-04-30T03:43:36;93966.72;;;12.34;72.17
6024;BME280;3040;42.654;23.296;2023-04-30T03:46:03;93920.66;;;12.14;72.61
6024;BME280;3040;42.654;23.296;2023-04-30T03:48:30;93968.56;;;12.53;73.25
6024;BME280;3040;42.654;23.296;2023-04-30T03:50:57;93974.06;;;12.63;73.17
6024;BME280;3040;42.654;23.296;2023-04-30T03:53:24;93979.41;;;12.63;72.82
6024;BME280;3040;42.654;23.296;2023-04-30T03:55:52;93984.88;;;12.71;73.00
6024;BME280;3040;42.654;23.296;2023-04-30T03:58:20;93979.59;;;12.74;74.12
6024;BME280;3040;42.654;23.296;2023-04-30T04:00:48;93981.19;;;12.79;74.66
6024;BME280;3040;42.654;23.296;2023-04-30T04:03:15;93987.38;;;12.83;74.08
6024;BME280;3040;42.654;23.296;2023-04-30T04:05:42;93907.31;;;12.37;74.34
6024;BME280;3040;42.654;23.296;2023-04-30T04:08:09;93981.38;;;12.89;74.93
6024;BME280;3040;42.654;23.296;2023-04-30T04:10:36;93961.16;;;12.66;74.48
6024;BME280;3040;42.654;23.296;2023-04-30T04:13:04;93983.78;;;12.98;74.25
6024;BME280;3040;42.654;23.296;2023-04-30T04:15:31;93985.31;;;12.99;73.44
6024;BME280;3040;42.654;23.296;2023-04-30T04:17:59;93994.88;;;13.00;73.46
6024;BME280;3040;42.654;23.296;2023-04-30T04:20:26;93993.75;;;13.01;72.97
6024;BME280;3040;42.654;23.296;2023-04-30T04:22:54;93979.75;;;13.08;73.49
6024;BME280;3040;42.654;23.296;2023-04-30T04:25:21;93987.81;;;13.11;73.53
6024;BME280;3040;42.654;23.296;2023-04-30T04:27:49;93990.81;;;13.10;73.49
6024;BME280;3040;42.654;23.296;2023-04-30T04:30:16;93990.78;;;13.06;73.31
6024;BME280;3040;42.654;23.296;2023-04-30T04:32:43;93940.75;;;12.77;72.52
6024;BME280;3040;42.654;23.296;2023-04-30T04:35:14;93965.53;;;13.00;73.19
6024;BME280;3040;42.654;23.296;2023-04-30T04:37:41;94001.81;;;13.27;72.49
6024;BME280;3040;42.654;23.296;2023-04-30T04:40:08;93962.84;;;13.00;72.07
6024;BME280;3040;42.654;23.296;2023-04-30T04:42:35;94000.97;;;13.23;71.22
6024;BME280;3040;42.654;23.296;2023-04-30T04:45:04;94005.88;;;13.18;70.43
6024;BME280;3040;42.654;23.296;2023-04-30T04:47:32;94010.94;;;13.26;69.75
6024;BME280;3040;42.654;23.296;2023-04-30T04:49:59;93926.28;;;12.78;69.98
6024;BME280;3040;42.654;23.296;2023-04-30T04:52:27;94003.50;;;13.39;69.67
6024;BME280;3040;42.654;23.296;2023-04-30T04:54:54;94008.91;;;13.42;69.38
6024;BME280;3040;42.654;23.296;2023-04-30T04:57:21;94006.63;;;13.44;69.84
6024;BME280;3040;42.654;23.296;2023-04-30T04:59:47;94018.25;;;13.29;70.06
6024;BME280;3040;42.654;23.296;2023-04-30T05:02:14;94018.16;;;13.49;70.05
6024;BME280;3040;42.654;23.296;2023-04-30T05:04:41;93975.06;;;13.24;69.84
6024;BME280;3040;42.654;23.296;2023-04-30T05:07:08;94011.09;;;13.63;68.90
6024;BME280;3040;42.654;23.296;2023-04-30T05:09:36;94010.09;;;13.75;69.50
6024;BME280;3040;42.654;23.296;2023-04-30T05:12:04;94011.75;;;13.83;70.13
6024;BME280;3040;42.654;23.296;2023-04-30T05:14:31;94014.53;;;13.94;70.90
6024;BME280;3040;42.654;23.296;2023-04-30T05:16:57;94019.19;;;13.97;69.96
6024;BME280;3040;42.654;23.296;2023-04-30T05:19:24;94009.66;;;13.99;70.29
6024;BME280;3040;42.654;23.296;2023-04-30T05:21:51;94017.75;;;14.06;71.13
6024;BME280;3040;42.654;23.296;2023-04-30T05:24:18;94023.63;;;14.15;70.84
6024;BME280;3040;42.654;23.296;2023-04-30T05:26:46;94025.19;;;14.20;70.62
6024;BME280;3040;42.654;23.296;2023-04-30T05:29:13;94019.16;;;14.26;70.57
6024;BME280;3040;42.654;23.296;2023-04-30T05:31:40;94021.50;;;14.32;68.98
6024;BME280;3040;42.654;23.296;2023-04-30T05:34:07;93990.84;;;14.22;68.86
6024;BME280;3040;42.654;23.296;2023-04-30T05:36:33;94026.22;;;14.42;67.36
6024;BME280;3040;42.654;23.296;2023-04-30T05:39:00;94017.47;;;14.45;66.88
6024;BME280;3040;42.654;23.296;2023-04-30T05:41:28;94023.19;;;14.43;66.47
6024;BME280;3040;42.654;23.296;2023-04-30T05:43:56;93980.56;;;14.27;67.01
6024;BME280;3040;42.654;23.296;2023-04-30T05:46:23;94021.91;;;14.34;66.66
6024;BME280;3040;42.654;23.296;2023-04-30T05:48:50;94023.94;;;14.40;66.39
6024;BME280;3040;42.654;23.296;2023-04-30T05:51:17;94007.78;;;14.37;68.06
6024;BME280;3040;42.654;23.296;2023-04-30T05:53:43;93946.88;;;13.86;68.20
6024;BME280;3040;42.654;23.296;2023-04-30T05:56:10;94007.72;;;14.30;67.59
6024;BME280;3040;42.654;23.296;2023-04-30T05:58:38;94019.31;;;14.41;67.09
6024;BME280;3040;42.654;23.296;2023-04-30T06:01:06;94023.94;;;14.40;67.53
6024;BME280;3040;42.654;23.296;2023-04-30T06:03:35;94020.16;;;14.45;66.76
6024;BME280;3040;42.654;23.296;2023-04-30T06:06:02;94024.75;;;14.48;66.90
6024;BME280;3040;42.654;23.296;2023-04-30T06:08:29;93980.97;;;14.30;65.81
6024;BME280;3040;42.654;23.296;2023-04-30T06:10:56;94027.25;;;14.67;65.30
6024;BME280;3040;42.654;23.296;2023-04-30T06:13:23;94028.13;;;14.78;66.26
6024;BME280;3040;42.654;23.296;2023-04-30T06:15:50;94011.19;;;14.67;65.69
6024;BME280;3040;42.654;23.296;2023-04-30T06:18:18;94033.63;;;14.92;65.91
6024;BME280;3040;42.654;23.296;2023-04-30T06:20:45;94041.31;;;14.97;66.22
6024;BME280;3040;42.654;23.296;2023-04-30T06:23:12;93952.50;;;14.48;65.40
6024;BME280;3040;42.654;23.296;2023-04-30T06:25:38;94012.94;;;14.89;65.55
6024;BME280;3040;42.654;23.296;2023-04-30T06:28:05;94032.31;;;15.16;66.18
6024;BME280;3040;42.654;23.296;2023-04-30T06:30:35;94028.16;;;15.26;65.91
6024;BME280;3040;42.654;23.296;2023-04-30T06:33:02;94033.50;;;15.22;63.82
6024;BME280;3040;42.654;23.296;2023-04-30T06:35:30;94039.16;;;15.14;63.96
6024;BME280;3040;42.654;23.296;2023-04-30T06:37:57;94041.59;;;15.29;64.64
6024;BME280;3040;42.654;23.296;2023-04-30T06:40:24;94035.91;;;15.38;65.15
6024;BME280;3040;42.654;23.296;2023-04-30T06:42:51;94017.06;;;15.24;63.86
6024;BME280;3040;42.654;23.296;2023-04-30T06:45:19;93997.16;;;15.25;63.45
6024;BME280;3040;42.654;23.296;2023-04-30T06:47:45;94044.97;;;15.70;62.33
6024;BME280;3040;42.654;23.296;2023-04-30T06:50:12;94043.91;;;15.85;61.99
6024;BME280;3040;42.654;23.296;2023-04-30T06:52:41;94057.28;;;15.78;60.47
6024;BME280;3040;42.654;23.296;2023-04-30T06:55:08;94041.22;;;15.82;60.38
6024;BME280;3040;42.654;23.296;2023-04-30T06:57:36;94056.34;;;16.15;60.15
6024;BME280;3040;42.654;23.296;2023-04-30T07:00:03;94001.44;;;15.98;58.88
6024;BME280;3040;42.654;23.296;2023-04-30T07:02:30;94048.50;;;16.61;58.52
6024;BME280;3040;42.654;23.296;2023-04-30T07:04:57;94048.47;;;16.57;58.24
6024;BME280;3040;42.654;23.296;2023-04-30T07:07:24;94045.34;;;16.48;60.89
6024;BME280;3040;42.654;23.296;2023-04-30T07:09:52;94049.97;;;16.51;58.87
6024;BME280;3040;42.654;23.296;2023-04-30T07:12:19;94045.72;;;16.43;57.81
6024;BME280;3040;42.654;23.296;2023-04-30T07:14:46;94051.13;;;16.50;58.04
6024;BME280;3040;42.654;23.296;2023-04-30T07:17:13;94052.72;;;16.62;59.69
6024;BME280;3040;42.654;23.296;2023-04-30T07:19:40;93994.69;;;16.36;59.81
6024;BME280;3040;42.654;23.296;2023-04-30T07:22:07;94051.63;;;16.88;59.53
6024;BME280;3040;42.654;23.296;2023-04-30T07:24:34;93911.41;;;16.01;58.03
6024;BME280;3040;42.654;23.296;2023-04-30T07:27:02;94046.25;;;16.95;57.98
6024;BME280;3040;42.654;23.296;2023-04-30T07:29:31;94045.50;;;16.98;58.63
6024;BME280;3040;42.654;23.296;2023-04-30T07:31:58;94046.91;;;16.53;57.92
6024;BME280;3040;42.654;23.296;2023-04-30T07:34:25;94046.06;;;16.35;59.27
6024;BME280;3040;42.654;23.296;2023-04-30T07:36:52;94049.97;;;16.58;59.66
6024;BME280;3040;42.654;23.296;2023-04-30T07:39:19;94053.88;;;16.72;59.52
6024;BME280;3040;42.654;23.296;2023-04-30T07:41:45;94055.44;;;16.69;59.57
6024;BME280;3040;42.654;23.296;2023-04-30T07:44:15;94048.88;;;16.59;58.15
6024;BME280;3040;42.654;23.296;2023-04-30T07:46:42;94060.41;;;16.67;58.77
6024;BME280;3040;42.654;23.296;2023-04-30T07:49:09;94055.03;;;16.71;58.98
6024;BME280;3040;42.654;23.296;2023-04-30T07:51:35;94054.66;;;16.72;58.28
6024;BME280;3040;42.654;23.296;2023-04-30T07:54:03;94060.06;;;16.79;58.60
6024;BME280;3040;42.654;23.296;2023-04-30T07:56:30;94063.88;;;16.75;58.35
6024;BME280;3040;42.654;23.296;2023-04-30T07:58:56;94057.75;;;16.78;58.51
6024;BME280;3040;42.654;23.296;2023-04-30T08:01:25;94059.09;;;16.33;57.58
6024;BME280;3040;42.654;23.296;2023-04-30T08:03:51;94061.47;;;16.48;59.16
6024;BME280;3040;42.654;23.296;2023-04-30T08:06:18;94057.34;;;15.89;59.28
6024;BME280;3040;42.654;23.296;2023-04-30T08:08:45;94054.38;;;16.05;58.66
6024;BME280;3040;42.654;23.296;2023-04-30T08:11:12;94064.06;;;15.62;57.81
6024;BME280;3040;42.654;23.296;2023-04-30T08:13:39;94068.19;;;15.08;60.64
6024;BME280;3040;42.654;23.296;2023-04-30T08:16:07;94060.41;;;14.92;61.53
6024;BME280;3040;42.654;23.296;2023-04-30T08:18:35;94066.56;;;14.96;62.89
6024;BME280;3040;42.654;23.296;2023-04-30T08:21:03;94071.34;;;14.77;61.60
6024;BME280;3040;42.654;23.296;2023-04-30T08:23:30;94067.47;;;14.74;62.44
6024;BME280;3040;42.654;23.296;2023-04-30T08:25:57;94074.28;;;15.05;62.45
6024;BME280;3040;42.654;23.296;2023-04-30T08:28:24;94063.25;;;15.10;61.71
6024;BME280;3040;42.654;23.296;2023-04-30T08:30:51;94072.19;;;15.25;62.32
6024;BME280;3040;42.654;23.296;2023-04-30T08:33:17;94065.94;;;15.14;60.81
6024;BME280;3040;42.654;23.296;2023-04-30T08:35:46;94063.69;;;15.60;61.43
6024;BME280;3040;42.654;23.296;2023-04-30T08:38:13;94066.41;;;15.67;57.44
6024;BME280;3040;42.654;23.296;2023-04-30T08:40:39;94067.06;;;15.53;56.94
6024;BME280;3040;42.654;23.296;2023-04-30T08:43:07;94054.28;;;15.39;58.00
6024;BME280;3040;42.654;23.296;2023-04-30T08:45:36;94064.38;;;15.53;56.94
6024;BME280;3040;42.654;23.296;2023-04-30T08:48:04;94063.38;;;15.75;57.41
6024;BME280;3040;42.654;23.296;2023-04-30T08:50:31;93826.97;;;14.76;55.22
6024;BME280;3040;42.654;23.296;2023-04-30T08:53:01;94061.81;;;16.36;55.16
6024;BME280;3040;42.654;23.296;2023-04-30T08:55:28;94057.19;;;16.40;55.40
6024;BME280;3040;42.654;23.296;2023-04-30T08:57:55;94073.72;;;16.42;54.06
6024;BME280;3040;42.654;23.296;2023-04-30T09:00:22;94052.34;;;16.63;53.39
6024;BME280;3040;42.654;23.296;2023-04-30T09:02:51;94048.22;;;17.05;54.34
6024;BME280;3040;42.654;23.296;2023-04-30T09:05:18;94048.63;;;17.60;53.17
6024;BME280;3040;42.654;23.296;2023-04-30T09:07:45;94036.22;;;18.19;48.68
6024;BME280;3040;42.654;23.296;2023-04-30T09:10:17;94036.31;;;18.89;49.04
6024;BME280;3040;42.654;23.296;2023-04-30T09:12:57;93979.59;;;19.06;47.01
6024;BME280;3040;42.654;23.296;2023-04-30T09:15:25;94036.66;;;19.94;46.48
6024;BME280;3040;42.654;23.296;2023-04-30T09:18:05;94021.19;;;19.98;43.53
6024;BME280;3040;42.654;23.296;2023-04-30T09:20:32;94016.81;;;19.74;45.29
6024;BME280;3040;42.654;23.296;2023-04-30T09:23:04;94022.22;;;20.45;44.42
6024;BME280;3040;42.654;23.296;2023-04-30T09:25:38;94023.59;;;20.60;42.65
6024;BME280;3040;42.654;23.296;2023-04-30T09:28:07;94014.25;;;20.01;43.31
6024;BME280;3040;42.654;23.296;2023-04-30T09:30:35;94014.06;;;19.33;43.88
6024;BME280;3040;42.654;23.296;2023-04-30T09:33:01;94000.97;;;19.31;43.70
6024;BME280;3040;42.654;23.296;2023-04-30T09:35:29;93983.00;;;19.62;44.33
6024;BME280;3040;42.654;23.296;2023-04-30T09:37:58;93846.78;;;19.02;42.39
6024;BME280;3040;42.654;23.296;2023-04-30T09:40:35;93995.69;;;20.03;42.33
6024;BME280;3040;42.654;23.296;2023-04-30T09:43:04;93962.66;;;19.54;44.09
6024;BME280;3040;42.654;23.296;2023-04-30T09:45:41;93991.03;;;20.07;43.56
6024;BME280;3040;42.654;23.296;2023-04-30T09:48:09;93974.16;;;20.33;43.32
6024;BME280;3040;42.654;23.296;2023-04-30T09:50:37;93981.53;;;21.13;42.01
6024;BME280;3040;42.654;23.296;2023-04-30T09:53:05;93869.44;;;20.94;40.88
6024;BME280;3040;42.654;23.296;2023-04-30T09:55:34;93985.25;;;21.92;40.50
6024;BME280;3040;42.654;23.296;2023-04-30T09:58:04;93975.66;;;21.65;39.91
6024;BME280;3040;42.654;23.296;2023-04-30T10:00:33;93987.25;;;21.65;40.18
6024;BME280;3040;42.654;23.296;2023-04-30T10:03:05;93961.16;;;21.05;39.59
6024;BME280;3040;42.654;23.296;2023-04-30T10:05:36;93978.94;;;21.06;40.96
6024;BME280;3040;42.654;23.296;2023-04-30T10:08:06;93977.94;;;21.70;40.70
6024;BME280;3040;42.654;23.296;2023-04-30T10:10:33;93841.03;;;21.29;39.67
6024;BME280;3040;42.654;23.296;2023-04-30T10:13:05;93972.34;;;22.95;38.05
6024;BME280;3040;42.654;23.296;2023-04-30T10:15:37;93975.56;;;22.15;37.01
6024;BME280;3040;42.654;23.296;2023-04-30T10:18:10;93981.09;;;19.97;40.74
6024;BME280;3040;42.654;23.296;2023-04-30T10:20:40;93941.91;;;18.99;42.40
6024;BME280;3040;42.654;23.296;2023-04-30T10:23:07;93966.94;;;18.30;45.52
6024;BME280;3040;42.654;23.296;2023-04-30T10:25:34;93979.19;;;18.46;46.29
6024;BME280;3040;42.654;23.296;2023-04-30T10:28:07;93973.03;;;18.49;48.20
6024;BME280;3040;42.654;23.296;2023-04-30T10:30:34;94004.06;;;17.70;51.29
6024;BME280;3040;42.654;23.296;2023-04-30T10:33:08;94009.06;;;17.39;55.41
6024;BME280;3040;42.654;23.296;2023-04-30T10:35:44;94040.53;;;16.93;66.82
6024;BME280;3040;42.654;23.296;2023-04-30T10:38:16;94037.84;;;16.96;66.57
6024;BME280;3040;42.654;23.296;2023-04-30T10:40:46;93973.25;;;16.47;68.74
6024;BME280;3040;42.654;23.296;2023-04-30T10:43:16;94033.59;;;16.85;69.91
6024;BME280;3040;42.654;23.296;2023-04-30T10:45:44;94010.19;;;16.78;66.72
6024;BME280;3040;42.654;23.296;2023-04-30T10:48:14;94008.47;;;16.20;70.27
6024;BME280;3040;42.654;23.296;2023-04-30T10:50:42;94028.25;;;17.27;73.77
6024;BME280;3040;42.654;23.296;2023-04-30T10:53:11;94016.19;;;18.27;74.26
6024;BME280;3040;42.654;23.296;2023-04-30T10:55:45;93974.59;;;18.43;68.83
6024;BME280;3040;42.654;23.296;2023-04-30T10:58:25;94006.22;;;18.97;69.57
6024;BME280;3040;42.654;23.296;2023-04-30T11:01:00;94014.16;;;19.19;71.76
6024;BME280;3040;42.654;23.296;2023-04-30T11:03:28;94008.81;;;19.63;69.75
6024;BME280;3040;42.654;23.296;2023-04-30T11:05:55;94007.38;;;19.92;62.26
6024;BME280;3040;42.654;23.296;2023-04-30T11:08:31;94000.84;;;20.24;60.45
6024;BME280;3040;42.654;23.296;2023-04-30T11:10:59;94000.00;;;20.64;53.95
6024;BME280;3040;42.654;23.296;2023-04-30T11:13:37;93976.41;;;21.45;59.04
6024;BME280;3040;42.654;23.296;2023-04-30T11:16:04;94002.69;;;21.68;49.19
6024;BME280;3040;42.654;23.296;2023-04-30T11:18:31;94003.00;;;21.50;51.58
6024;BME280;3040;42.654;23.296;2023-04-30T11:21:00;93995.47;;;22.24;48.03
6024;BME280;3040;42.654;23.296;2023-04-30T11:23:27;93997.50;;;22.40;41.66
6024;BME280;3040;42.654;23.296;2023-04-30T11:25:54;93986.13;;;21.86;44.01
6024;BME280;3040;42.654;23.296;2023-04-30T11:28:23;93993.84;;;21.87;50.16
6024;BME280;3040;42.654;23.296;2023-04-30T11:30:53;93991.63;;;21.36;46.53
6024;BME280;3040;42.654;23.296;2023-04-30T11:33:21;93956.50;;;20.82;50.06
6024;BME280;3040;42.654;23.296;2023-04-30T11:35:48;93987.50;;;20.44;51.27
6024;BME280;3040;42.654;23.296;2023-04-30T11:38:19;93990.34;;;20.63;48.04
6024;BME280;3040;42.654;23.296;2023-04-30T11:40:46;93953.09;;;20.78;48.62
6024;BME280;3040;42.654;23.296;2023-04-30T11:43:21;93971.19;;;21.08;44.42
6024;BME280;3040;42.654;23.296;2023-04-30T11:46:04;93983.47;;;21.12;48.12
6024;BME280;3040;42.654;23.296;2023-04-30T11:48:32;93977.28;;;21.12;43.87
6024;BME280;3040;42.654;23.296;2023-04-30T11:51:02;93979.31;;;21.78;46.51
6024;BME280;3040;42.654;23.296;2023-04-30T11:53:29;93977.22;;;22.09;42.13
6024;BME280;3040;42.654;23.296;2023-04-30T11:55:55;93978.44;;;22.99;47.52
6024;BME280;3040;42.654;23.296;2023-04-30T11:58:22;93981.81;;;23.56;45.72
6024;BME280;3040;42.654;23.296;2023-04-30T12:00:49;93980.59;;;24.02;44.30
6024;BME280;3040;42.654;23.296;2023-04-30T12:03:19;93971.44;;;24.53;41.20
6024;BME280;3040;42.654;23.296;2023-04-30T12:05:45;93874.63;;;24.43;39.07
6024;BME280;3040;42.654;23.296;2023-04-30T12:08:13;93970.63;;;25.32;37.89
6024;BME280;3040;42.654;23.296;2023-04-30T12:10:39;93968.63;;;25.45;34.71
6024;BME280;3040;42.654;23.296;2023-04-30T12:13:06;93977.06;;;25.00;38.38
6024;BME280;3040;42.654;23.296;2023-04-30T12:15:33;93963.94;;;24.57;37.50
6024;BME280;3040;42.654;23.296;2023-04-30T12:18:10;93982.72;;;24.10;40.49
6024;BME280;3040;42.654;23.296;2023-04-30T12:20:39;93981.88;;;23.52;43.49
6024;BME280;3040;42.654;23.296;2023-04-30T12:23:07;93993.91;;;23.35;44.58
6024;BME280;3040;42.654;23.296;2023-04-30T12:25:39;94000.50;;;23.01;45.11
6024;BME280;3040;42.654;23.296;2023-04-30T12:28:06;93998.53;;;22.26;45.99
6024;BME280;3040;42.654;23.296;2023-04-30T12:30:33;93860.38;;;20.81;46.55
6024;BME280;3040;42.654;23.296;2023-04-30T12:33:00;93990.69;;;20.96;50.51
6024;BME280;3040;42.654;23.296;2023-04-30T12:35:29;94013.19;;;20.59;48.68
6024;BME280;3040;42.654;23.296;2023-04-30T12:38:02;93984.03;;;20.13;48.64
6024;BME280;3040;42.654;23.296;2023-04-30T12:40:29;94021.31;;;20.21;50.23
6024;BME280;3040;42.654;23.296;2023-04-30T12:43:00;93894.75;;;19.22;51.19
6024;BME280;3040;42.654;23.296;2023-04-30T12:45:47;94017.78;;;19.90;52.02
6024;BME280;3040;42.654;23.296;2023-04-30T12:48:16;94015.13;;;19.87;53.78
6024;BME280;3040;42.654;23.296;2023-04-30T12:50:49;94021.06;;;19.71;53.46
6024;BME280;3040;42.654;23.296;2023-04-30T12:53:18;94017.06;;;19.42;53.97
6024;BME280;3040;42.654;23.296;2023-04-30T12:56:06;94021.56;;;19.07;54.41
6024;BME280;3040;42.654;23.296;2023-04-30T12:58:33;94021.41;;;18.70;55.00
6024;BME280;3040;42.654;23.296;2023-04-30T13:01:00;94021.44;;;18.66;54.90
6024;BME280;3040;42.654;23.296;2023-04-30T13:03:27;94010.19;;;18.79;56.01
6024;BME280;3040;42.654;23.296;2023-04-30T13:05:54;94013.09;;;18.36;55.27
6024;BME280;3040;42.654;23.296;2023-04-30T13:08:22;94013.75;;;18.58;55.07
6024;BME280;3040;42.654;23.296;2023-04-30T13:10:49;94012.25;;;18.50;54.64
6024;BME280;3040;42.654;23.296;2023-04-30T13:13:16;93996.88;;;18.47;54.52
6024;BME280;3040;42.654;23.296;2023-04-30T13:15:44;93997.25;;;18.56;54.70